createdAt,value
2023-05-13T00:00:24.555Z,4.30
2023-05-13T00:05:22.927Z,4.23
2023-05-13T00:10:21.777Z,3.93
2023-05-13T00:15:21.561Z,4.43
2023-05-13T00:20:19.968Z,4.20
2023-05-13T00:25:19.612Z,5.80
2023-05-13T00:30:17.841Z,4.20
2023-05-13T00:35:17.493Z,4.40
2023-05-13T00:40:21.257Z,4.30
2023-05-13T00:45:20.117Z,4.17
2023-05-13T00:50:21.384Z,4.30
2023-05-13T00:55:19.837Z,4.53
2023-05-13T01:00:18.616Z,4.50
2023-05-13T01:05:32.276Z,4.00
2023-05-13T01:10:36.573Z,3.63
2023-05-13T01:15:38.998Z,4.13
2023-05-13T01:20:42.449Z,4.33
2023-05-13T01:25:42.567Z,4.17
2023-05-13T01:30:41.188Z,4.90
2023-05-13T01:35:41.321Z,4.60
2023-05-13T01:40:43.805Z,5.40
2023-05-13T01:45:42.690Z,4.77
2023-05-13T01:50:42.585Z,5.00
2023-05-13T01:55:42.761Z,4.47
2023-05-13T02:00:41.213Z,4.37
2023-05-13T02:05:39.465Z,4.67
2023-05-13T02:10:39.822Z,4.13
2023-05-13T02:15:39.515Z,4.50
2023-05-13T02:20:37.573Z,4.80
2023-05-13T02:25:36.027Z,4.10
2023-05-13T02:30:34.291Z,4.53
2023-05-13T02:35:33.945Z,4.47
2023-05-13T02:40:32.837Z,5.27
2023-05-13T02:45:31.143Z,4.70
2023-05-13T02:50:29.602Z,4.50
2023-05-13T02:55:30.197Z,4.67
2023-05-13T03:00:29.886Z,5.00
2023-05-13T03:05:29.857Z,5.67
2023-05-13T03:10:29.913Z,4.40
2023-05-13T03:15:28.161Z,4.80
2023-05-13T03:20:26.367Z,4.67
2023-05-13T03:25:25.014Z,5.10
2023-05-13T03:30:29.891Z,5.30
2023-05-13T03:35:34.603Z,5.40
2023-05-13T03:40:33.229Z,5.23
2023-05-13T03:45:33.043Z,4.57
2023-05-13T03:50:36.470Z,5.67
2023-05-13T03:55:35.584Z,5.10
2023-05-13T04:00:35.040Z,5.07
2023-05-13T04:05:33.300Z,5.10
2023-05-13T04:10:31.371Z,5.23
2023-05-13T04:15:30.471Z,5.07
2023-05-13T04:20:30.255Z,5.47
2023-05-13T04:25:28.359Z,4.80
2023-05-13T04:30:26.677Z,4.97
2023-05-13T04:35:25.356Z,5.60
2023-05-13T04:40:29.504Z,5.70
2023-05-13T04:45:31.919Z,5.10
2023-05-13T04:50:32.087Z,4.77
2023-05-13T04:55:33.112Z,5.30
2023-05-13T05:00:31.181Z,5.33
2023-05-13T05:05:29.695Z,5.37
2023-05-13T05:10:28.023Z,4.73
2023-05-13T05:15:31.867Z,5.23
2023-05-13T05:20:32.562Z,5.80
2023-05-13T05:25:33.553Z,4.77
2023-05-13T05:30:39.584Z,4.77
2023-05-13T05:35:43.609Z,4.50
2023-05-13T05:40:46.372Z,4.53
2023-05-13T05:45:47.191Z,4.13
2023-05-13T05:50:49.190Z,4.30
2023-05-13T05:55:54.609Z,4.10
2023-05-13T06:00:55.536Z,4.10
2023-05-13T06:05:53.671Z,3.83
2023-05-13T06:10:52.152Z,4.40
2023-05-13T06:15:50.564Z,3.87
2023-05-13T06:20:50.198Z,4.50
2023-05-13T06:25:50.082Z,4.83
2023-05-13T06:30:48.340Z,3.40
2023-05-13T06:35:49.587Z,3.73
2023-05-13T06:40:50.897Z,3.90
2023-05-13T06:45:51.692Z,3.40
2023-05-13T06:50:49.800Z,4.00
2023-05-13T06:55:48.871Z,3.37
2023-05-13T07:00:48.465Z,3.10
2023-05-13T07:05:46.486Z,3.10
2023-05-13T07:10:44.817Z,3.50
2023-05-13T07:15:42.836Z,2.70
2023-05-13T07:20:42.387Z,3.00
2023-05-13T07:25:40.530Z,3.37
2023-05-13T07:30:41.619Z,3.00
2023-05-13T07:35:39.808Z,2.93
2023-05-13T07:40:39.616Z,2.50
2023-05-13T07:45:39.157Z,2.50
2023-05-13T07:50:37.818Z,2.67
2023-05-13T07:55:35.899Z,2.70
2023-05-13T08:00:35.332Z,2.40
2023-05-13T08:05:33.367Z,3.10
2023-05-13T08:10:31.658Z,3.27
2023-05-13T08:15:29.938Z,3.30
2023-05-13T08:20:30.662Z,3.40
2023-05-13T08:25:28.673Z,2.87
2023-05-13T08:30:27.057Z,3.13
2023-05-13T08:35:26.151Z,3.10
2023-05-13T08:40:25.859Z,3.00
2023-05-13T08:45:26.227Z,3.13
2023-05-13T08:50:24.501Z,3.30
2023-05-13T08:55:24.361Z,3.20
2023-05-13T09:00:24.244Z,2.90
2023-05-13T09:05:25.185Z,3.30
2023-05-13T09:10:23.885Z,3.33
2023-05-13T09:15:25.495Z,3.40
2023-05-13T09:20:25.589Z,3.17
2023-05-13T09:25:25.049Z,2.60
2023-05-13T09:30:25.053Z,2.60
2023-05-13T09:35:23.288Z,3.00
2023-05-13T09:40:22.020Z,3.03
2023-05-13T09:45:20.830Z,2.10
2023-05-13T09:50:20.638Z,2.30
2023-05-13T09:55:19.067Z,2.27
2023-05-13T10:00:28.815Z,3.00
2023-05-13T10:05:33.129Z,2.53
2023-05-13T10:10:32.962Z,2.30
2023-05-13T10:15:31.853Z,2.10
2023-05-13T10:20:32.288Z,1.93
2023-05-13T10:25:31.343Z,2.20
2023-05-13T10:30:32.537Z,2.33
2023-05-13T10:35:38.598Z,2.40
2023-05-13T10:41:08.232Z,2.67
2023-05-13T10:46:08.805Z,2.50
2023-05-13T10:51:08.995Z,2.10
2023-05-13T10:56:08.417Z,2.40
2023-05-13T11:01:18.226Z,2.30
2023-05-13T11:06:19.646Z,2.43
2023-05-13T11:11:27.534Z,2.23
2023-05-13T11:16:25.910Z,2.80
2023-05-13T11:21:36.613Z,2.50
2023-05-13T11:26:48.250Z,2.53
2023-05-13T11:31:49.215Z,2.40
2023-05-13T11:36:50.628Z,2.47
2023-05-13T11:41:51.670Z,2.07
2023-05-13T11:46:54.829Z,2.23
2023-05-13T11:51:55.081Z,2.97
2023-05-13T11:56:53.307Z,2.60
2023-05-13T12:02:01.375Z,2.40
2023-05-13T12:07:01.145Z,2.20
2023-05-13T12:11:59.718Z,1.93
2023-05-13T12:16:58.434Z,2.10
2023-05-13T12:21:56.716Z,1.80
2023-05-13T12:27:08.668Z,2.13
2023-05-13T12:32:08.779Z,2.43
2023-05-13T12:37:14.130Z,2.37
2023-05-13T12:42:17.691Z,1.90
2023-05-13T12:47:19.994Z,2.30
2023-05-13T12:52:18.211Z,2.33
2023-05-13T12:57:19.079Z,2.50
2023-05-13T13:02:17.584Z,2.80
2023-05-13T13:07:16.523Z,2.30
2023-05-13T13:12:14.719Z,2.00
2023-05-13T13:17:14.248Z,2.70
2023-05-13T13:22:12.432Z,2.40
2023-05-13T13:27:11.892Z,2.43
2023-05-13T13:32:09.978Z,2.57
2023-05-13T13:37:09.553Z,2.97
2023-05-13T13:42:07.752Z,2.90
2023-05-13T13:47:06.012Z,2.70
2023-05-13T13:52:04.311Z,2.40
2023-05-13T13:57:04.004Z,2.70
2023-05-13T14:02:02.037Z,2.77
2023-05-13T14:07:00.642Z,3.20
2023-05-13T14:11:58.820Z,2.63
2023-05-13T14:16:58.295Z,2.60
2023-05-13T14:21:56.310Z,2.73
2023-05-13T14:26:54.621Z,2.23
2023-05-13T14:31:52.892Z,2.70
2023-05-13T14:36:53.638Z,2.97
2023-05-13T14:41:51.680Z,2.87
2023-05-13T14:46:50.047Z,2.40
2023-05-13T14:51:48.083Z,2.40
2023-05-13T14:56:47.758Z,2.37
2023-05-13T15:01:46.111Z,2.60
2023-05-13T15:06:44.389Z,2.77
2023-05-13T15:11:42.650Z,2.00
2023-05-13T15:16:42.228Z,2.60
2023-05-13T15:21:41.075Z,2.67
2023-05-13T15:26:39.463Z,2.93
2023-05-13T15:31:37.635Z,2.60
2023-05-13T15:36:37.876Z,2.63
2023-05-13T15:41:36.953Z,2.80
2023-05-13T15:46:35.336Z,2.30
2023-05-13T15:51:33.887Z,2.53
2023-05-13T15:56:33.289Z,2.50
2023-05-13T16:01:31.559Z,2.70
2023-05-13T16:06:29.771Z,3.87
2023-05-13T16:11:27.947Z,3.93
2023-05-13T16:16:27.406Z,3.70
2023-05-13T16:21:25.639Z,3.73
2023-05-13T16:26:24.018Z,3.20
2023-05-13T16:31:22.212Z,3.47
2023-05-13T16:36:21.798Z,3.67
2023-05-13T16:41:19.835Z,3.70
2023-05-13T16:46:18.014Z,3.20
2023-05-13T16:51:15.999Z,2.80
2023-05-13T16:56:15.578Z,3.27
2023-05-13T17:01:13.660Z,3.20
2023-05-13T17:06:12.348Z,2.83
2023-05-13T17:11:16.114Z,2.60
2023-05-13T17:16:15.759Z,2.90
2023-05-13T17:21:14.192Z,3.40
2023-05-13T17:26:12.276Z,3.10
2023-05-13T17:31:10.542Z,3.20
2023-05-13T17:36:10.795Z,3.10
2023-05-13T17:41:09.135Z,2.80
2023-05-13T17:46:07.423Z,2.87
2023-05-13T17:51:05.717Z,2.53
2023-05-13T17:56:05.872Z,2.90
2023-05-13T18:01:04.370Z,2.90
2023-05-13T18:06:02.662Z,2.83
2023-05-13T18:11:00.935Z,3.03
2023-05-13T18:16:01.026Z,3.23
2023-05-13T18:21:00.524Z,3.60
2023-05-13T18:25:58.714Z,3.20
2023-05-13T18:30:56.930Z,3.00
2023-05-13T18:35:56.316Z,3.07
2023-05-13T18:40:54.492Z,3.50
2023-05-13T18:45:53.523Z,4.80
2023-05-13T18:50:53.149Z,4.40
2023-05-13T18:55:52.757Z,4.93
2023-05-13T19:00:51.058Z,4.83
2023-05-13T19:05:49.246Z,4.30
2023-05-13T19:10:47.428Z,3.37
2023-05-13T19:15:46.978Z,3.47
2023-05-13T19:20:46.215Z,3.67
2023-05-13T19:25:44.540Z,4.27
2023-05-13T19:30:43.520Z,4.00
2023-05-13T19:35:45.254Z,4.33
2023-05-13T19:40:44.603Z,4.60
2023-05-13T19:45:42.994Z,3.73
2023-05-13T19:50:42.652Z,4.30
2023-05-13T19:55:41.413Z,3.90
2023-05-13T20:00:39.402Z,4.53
2023-05-13T20:05:37.831Z,3.80
2023-05-13T20:10:37.400Z,3.80
2023-05-13T20:15:35.657Z,4.53
2023-05-13T20:20:33.696Z,4.60
2023-05-13T20:25:31.873Z,4.70
2023-05-13T20:30:31.434Z,5.20
2023-05-13T20:35:29.773Z,5.43
2023-05-13T20:40:28.067Z,5.70
2023-05-13T20:45:26.280Z,4.63
2023-05-13T20:50:26.395Z,6.63
2023-05-13T20:55:24.608Z,5.33
2023-05-13T21:00:23.072Z,6.00
2023-05-13T21:05:21.913Z,6.33
2023-05-13T21:10:22.149Z,6.23
2023-05-13T21:15:20.453Z,5.90
2023-05-13T21:20:18.905Z,6.87
2023-05-13T21:25:16.968Z,5.70
2023-05-13T21:30:16.903Z,6.43
2023-05-13T21:35:15.271Z,6.70
2023-05-13T21:40:13.610Z,6.63
2023-05-13T21:45:12.651Z,6.40
2023-05-13T21:50:12.655Z,7.20
2023-05-13T21:55:11.388Z,7.10
2023-05-13T22:00:15.218Z,7.37
2023-05-13T22:05:17.721Z,7.10
2023-05-13T22:10:15.758Z,7.33
2023-05-13T22:15:14.422Z,7.37
2023-05-13T22:20:13.677Z,7.67
2023-05-13T22:25:13.249Z,8.10
2023-05-13T22:30:11.755Z,8.60
2023-05-13T22:35:10.878Z,8.20
2023-05-13T22:40:10.550Z,8.47
2023-05-13T22:45:11.522Z,8.80
2023-05-13T22:50:12.180Z,8.60
2023-05-13T22:55:10.834Z,8.50
2023-05-13T23:00:11.818Z,8.13
2023-05-13T23:05:10.052Z,8.90
2023-05-13T23:10:09.212Z,8.00
2023-05-13T23:15:08.357Z,10.00
2023-05-13T23:20:09.651Z,9.03
2023-05-13T23:25:09.044Z,8.67
2023-05-13T23:30:08.563Z,8.13
2023-05-13T23:35:09.833Z,9.60
2023-05-13T23:40:09.159Z,9.17
2023-05-13T23:45:08.464Z,9.30
2023-05-13T23:50:09.151Z,8.97
2023-05-13T23:55:08.447Z,10.00
